Time;durP1;ratioP1;P1;durP2;ratioP2;P2;SDS_P1;SDS_P2;PMS_P1;PMS_P2;Temp;Humidity;BMP_temperature;BMP_pressure;BME280_temperature;BME280_humidity;BME280_pressure;Samples;Min_cycle;Max_cycle;Signal;HPM_P1;HPM_P2
2022/07/30 00:02:25;;;;;;;1.85;1.20;;;18.90;99.90;;;;;;4975686;28;20027;-75
2022/07/30 00:04:50;;;;;;;1.25;0.82;;;18.90;99.90;;;;;;4976174;28;20058;-76
2022/07/30 00:07:16;;;;;;;2.95;1.17;;;18.90;99.90;;;;;;4975224;28;20051;-74
2022/07/30 00:09:41;;;;;;;2.58;1.70;;;18.90;99.90;;;;;;4975450;28;20042;-74
2022/07/30 00:12:08;;;;;;;1.23;1.05;;;18.90;99.90;;;;;;4975676;28;20026;-74
2022/07/30 00:14:34;;;;;;;5.82;1.95;;;18.90;99.90;;;;;;4957643;28;20035;-74
2022/07/30 00:17:02;;;;;;;2.05;0.98;;;18.90;99.90;;;;;;4975876;28;20034;-74
2022/07/30 00:19:28;;;;;;;3.65;1.50;;;18.90;99.90;;;;;;4974955;28;20088;-74
2022/07/30 00:21:54;;;;;;;2.30;1.35;;;18.80;99.90;;;;;;4975235;28;20031;-74
2022/07/30 00:24:20;;;;;;;2.88;1.23;;;18.80;99.90;;;;;;4975763;28;20042;-74
2022/07/30 00:26:46;;;;;;;6.53;1.55;;;18.80;99.90;;;;;;4975087;28;20029;-74
2022/07/30 00:29:12;;;;;;;2.33;1.45;;;18.80;99.90;;;;;;4975177;28;20078;-74
2022/07/30 00:31:37;;;;;;;3.33;1.10;;;18.80;99.90;;;;;;4957497;28;20605;-75
2022/07/30 00:34:03;;;;;;;3.00;1.27;;;18.80;99.90;;;;;;4975275;28;20051;-75
2022/07/30 00:36:28;;;;;;;11.02;1.73;;;18.80;99.90;;;;;;4974719;28;20031;-75
2022/07/30 00:38:55;;;;;;;2.65;1.40;;;18.80;99.90;;;;;;4975436;28;20063;-76
2022/07/30 00:41:22;;;;;;;3.05;1.27;;;18.80;99.90;;;;;;4975538;28;20023;-75
2022/07/30 00:43:47;;;;;;;1.90;1.17;;;18.80;99.90;;;;;;4974931;28;20039;-75
2022/07/30 00:46:13;;;;;;;6.22;1.27;;;18.80;99.90;;;;;;4975765;28;20486;-74
2022/07/30 00:48:39;;;;;;;3.13;1.38;;;18.70;99.90;;;;;;4975363;28;20039;-75
2022/07/30 00:51:05;;;;;;;3.58;1.48;;;18.70;99.90;;;;;;4975622;28;20058;-75
2022/07/30 00:53:31;;;;;;;1.75;0.90;;;18.70;99.90;;;;;;4975495;28;20018;-75
2022/07/30 00:55:57;;;;;;;1.40;0.82;;;18.80;99.90;;;;;;4974902;28;20020;-74
2022/07/30 00:58:23;;;;;;;3.67;1.50;;;18.70;99.90;;;;;;4974924;28;20037;-75
2022/07/30 01:00:49;;;;;;;4.50;1.70;;;18.70;99.90;;;;;;4975209;28;20039;-76
2022/07/30 01:03:14;;;;;;;1.95;1.27;;;18.80;99.90;;;;;;4974386;28;20067;-76
2022/07/30 01:05:40;;;;;;;2.78;1.48;;;18.70;99.90;;;;;;4956144;28;20036;-76
2022/07/30 01:08:05;;;;;;;1.55;1.08;;;18.70;99.90;;;;;;4975574;28;20031;-76
2022/07/30 01:10:31;;;;;;;2.17;1.27;;;18.60;99.90;;;;;;4974984;28;20118;-76
2022/07/30 01:12:58;;;;;;;1.58;1.10;;;18.70;99.90;;;;;;4974955;28;20035;-76
2022/07/30 01:15:24;;;;;;;8.15;1.30;;;18.60;99.90;;;;;;4956921;28;20676;-76
2022/07/30 01:17:54;;;;;;;3.65;1.70;;;18.70;99.90;;;;;;4974021;28;20042;-76
2022/07/30 01:20:32;;;;;;;2.15;1.15;;;18.60;99.90;;;;;;4957270;28;20086;-76
2022/07/30 01:23:16;;;;;;;2.50;1.58;;;18.60;99.90;;;;;;4956970;28;20034;-77
2022/07/30 01:25:42;;;;;;;1.58;1.48;;;18.50;99.90;;;;;;4974429;28;20035;-77
2022/07/30 01:28:14;;;;;;;6.30;1.02;;;18.50;99.90;;;;;;4975433;28;20034;-74
2022/07/30 01:30:42;;;;;;;3.38;1.00;;;18.50;99.90;;;;;;4974780;28;20486;-74
2022/07/30 01:33:11;;;;;;;3.60;1.10;;;18.40;99.90;;;;;;4973915;28;20178;-75
2022/07/30 01:35:37;;;;;;;2.20;1.38;;;18.40;99.90;;;;;;4973670;28;20030;-74
2022/07/30 01:38:05;;;;;;;3.80;1.80;;;18.30;99.90;;;;;;4975466;28;20459;-75
2022/07/30 01:40:32;;;;;;;2.00;0.93;;;18.30;99.90;;;;;;4974452;28;20027;-76
2022/07/30 01:43:00;;;;;;;5.10;1.48;;;18.30;99.90;;;;;;4956799;28;20114;-76
2022/07/30 01:45:28;;;;;;;2.33;1.17;;;18.30;99.90;;;;;;4974411;28;20476;-75
2022/07/30 01:47:57;;;;;;;2.75;1.50;;;18.20;99.90;;;;;;4956432;28;20023;-74
2022/07/30 01:50:25;;;;;;;10.45;1.15;;;18.30;99.90;;;;;;4974432;28;20035;-76
2022/07/30 01:52:52;;;;;;;3.65;1.42;;;18.20;99.90;;;;;;4973749;28;20031;-74
2022/07/30 01:55:34;;;;;;;4.70;1.60;;;18.20;99.90;;;;;;4974175;28;20027;-74
2022/07/30 01:58:00;;;;;;;1.10;0.95;;;18.20;99.90;;;;;;4974033;28;20042;-76
2022/07/30 02:00:29;;;;;;;4.57;1.48;;;18.30;99.90;;;;;;4973832;28;20047;-74
2022/07/30 02:02:56;;;;;;;2.97;1.40;;;18.20;99.90;;;;;;4973551;28;20042;-76
2022/07/30 02:05:22;;;;;;;1.98;1.25;;;18.20;99.90;;;;;;4973671;28;20027;-75
2022/07/30 02:07:53;;;;;;;1.20;0.77;;;18.20;99.90;;;;;;4973321;28;20015;-75
2022/07/30 02:10:32;;;;;;;1.85;1.35;;;18.20;99.90;;;;;;4956268;28;20027;-75
2022/07/30 02:13:01;;;;;;;4.32;1.10;;;18.20;99.90;;;;;;4973702;28;20034;-76
2022/07/30 02:15:58;;;;;;;3.97;1.58;;;18.20;99.90;;;;;;4955915;28;20031;-76
2022/07/30 02:19:02;;;;;;;1.65;1.13;;;18.20;99.90;;;;;;4946631;28;20042;-77
2022/07/30 02:21:34;;;;;;;8.38;1.83;;;18.10;99.90;;;;;;4973652;28;20501;-75
2022/07/30 02:24:03;;;;;;;3.20;1.30;;;18.10;99.90;;;;;;4956317;28;20054;-75
2022/07/30 02:26:30;;;;;;;3.65;1.83;;;18.10;99.90;;;;;;4956202;28;20142;-76
2022/07/30 02:28:59;;;;;;;1.85;1.35;;;18.00;99.90;;;;;;4973395;28;20125;-75
2022/07/30 02:31:28;;;;;;;2.30;1.42;;;18.00;99.90;;;;;;4973396;28;20030;-76
2022/07/30 02:33:59;;;;;;;2.38;1.13;;;18.00;99.90;;;;;;4972912;28;20047;-76
2022/07/30 02:36:26;;;;;;;7.90;1.38;;;17.90;99.90;;;;;;4955177;28;20027;-76
2022/07/30 02:38:53;;;;;;;6.05;1.95;;;17.90;99.90;;;;;;4956255;28;20033;-75
2022/07/30 02:41:23;;;;;;;3.00;1.45;;;17.80;99.90;;;;;;4972929;28;20035;-75
2022/07/30 02:43:50;;;;;;;7.35;1.60;;;17.70;99.90;;;;;;4972900;28;20049;-75
2022/07/30 02:46:18;;;;;;;3.15;1.55;;;17.70;99.90;;;;;;4973425;28;20023;-75
2022/07/30 02:48:45;;;;;;;7.95;1.58;;;17.70;99.90;;;;;;4972635;28;20038;-76
2022/07/30 02:51:14;;;;;;;1.90;1.38;;;17.60;99.90;;;;;;4973213;28;20035;-75
2022/07/30 02:53:44;;;;;;;3.25;1.48;;;17.50;99.90;;;;;;4955401;28;20062;-75
2022/07/30 02:56:12;;;;;;;3.03;1.65;;;17.50;99.90;;;;;;4972873;28;20035;-75
2022/07/30 02:58:39;;;;;;;3.15;1.80;;;17.50;99.90;;;;;;4973137;28;20027;-75
2022/07/30 03:01:06;;;;;;;4.00;1.58;;;17.40;99.90;;;;;;4973071;28;20057;-76
2022/07/30 03:03:32;;;;;;;4.05;1.83;;;17.40;99.90;;;;;;4954995;28;20125;-76
2022/07/30 03:05:59;;;;;;;3.70;2.05;;;17.30;99.90;;;;;;4972742;28;20033;-77
2022/07/30 03:08:27;;;;;;;4.22;1.70;;;17.30;99.90;;;;;;4973133;28;20027;-77
2022/07/30 03:10:54;;;;;;;3.03;1.58;;;17.40;99.90;;;;;;4974586;28;20038;-75
2022/07/30 03:13:22;;;;;;;2.55;1.73;;;17.20;99.90;;;;;;4972666;28;20058;-75
2022/07/30 03:15:50;;;;;;;6.13;1.60;;;17.30;99.90;;;;;;4972487;28;20042;-75
2022/07/30 03:18:18;;;;;;;2.67;1.58;;;17.20;99.90;;;;;;4972328;28;20124;-76
2022/07/30 03:20:47;;;;;;;2.80;1.73;;;17.20;99.90;;;;;;4954714;28;20166;-75
2022/07/30 03:23:17;;;;;;;3.15;1.88;;;17.10;99.90;;;;;;4954710;28;20043;-76
2022/07/30 03:25:47;;;;;;;2.78;2.03;;;17.10;99.90;;;;;;4972658;28;20023;-76
2022/07/30 03:28:13;;;;;;;3.30;1.90;;;17.20;99.90;;;;;;4972800;28;20023;-76
2022/07/30 03:30:40;;;;;;;3.70;2.05;;;17.10;99.90;;;;;;4975946;28;20757;-75
2022/07/30 03:33:06;;;;;;;1.90;1.50;;;17.00;99.90;;;;;;4975378;28;20070;-75
2022/07/30 03:35:32;;;;;;;5.32;2.05;;;17.00;99.90;;;;;;4976497;28;20035;-76
2022/07/30 03:37:58;;;;;;;4.55;2.00;;;17.10;99.90;;;;;;4976110;28;20898;-76
2022/07/30 03:40:25;;;;;;;4.95;1.80;;;17.00;99.90;;;;;;4976448;28;20038;-77
2022/07/30 03:42:51;;;;;;;3.00;1.70;;;17.00;99.90;;;;;;4976329;28;20039;-76
2022/07/30 03:45:18;;;;;;;2.75;1.85;;;17.00;99.90;;;;;;4975519;28;20033;-77
2022/07/30 03:47:45;;;;;;;2.58;1.85;;;17.00;99.90;;;;;;4976408;28;20126;-75
2022/07/30 03:50:12;;;;;;;2.67;1.42;;;16.90;99.90;;;;;;4975830;28;20077;-76
2022/07/30 03:52:39;;;;;;;4.97;2.20;;;16.90;99.90;;;;;;4975686;28;20090;-76
2022/07/30 03:55:07;;;;;;;9.30;1.95;;;17.00;99.90;;;;;;4958555;28;20034;-76
2022/07/30 03:57:34;;;;;;;8.70;2.63;;;16.90;99.90;;;;;;4958448;28;20027;-76
2022/07/30 04:00:00;;;;;;;4.25;2.78;;;16.80;99.90;;;;;;4958260;28;20023;-77
2022/07/30 04:02:26;;;;;;;5.78;2.58;;;16.90;99.90;;;;;;4975293;28;20039;-77
2022/07/30 04:04:52;;;;;;;3.10;1.98;;;16.90;99.90;;;;;;4976040;28;20041;-76
2022/07/30 04:07:18;;;;;;;8.10;2.92;;;16.80;99.90;;;;;;4957804;28;20061;-76
2022/07/30 04:09:43;;;;;;;9.25;2.35;;;16.80;99.90;;;;;;4974904;28;20035;-75
2022/07/30 04:12:09;;;;;;;5.32;2.42;;;16.90;99.90;;;;;;4975672;28;20077;-75
2022/07/30 04:14:42;;;;;;;5.45;2.42;;;16.90;99.90;;;;;;4975846;28;20030;-75
2022/07/30 04:17:21;;;;;;;3.28;1.92;;;16.70;99.90;;;;;;4975785;28;20024;-75
2022/07/30 04:19:50;;;;;;;3.55;2.00;;;16.80;99.90;;;;;;4975620;28;20510;-75
2022/07/30 04:22:20;;;;;;;2.65;1.65;;;16.90;99.90;;;;;;4974861;28;20086;-76
2022/07/30 04:24:47;;;;;;;3.75;2.03;;;16.80;99.90;;;;;;4974732;28;20038;-74
2022/07/30 04:27:13;;;;;;;4.68;2.63;;;16.80;99.90;;;;;;4975256;28;20030;-74
2022/07/30 04:29:39;;;;;;;11.50;2.40;;;16.90;99.90;;;;;;4975443;28;20464;-74
2022/07/30 04:32:07;;;;;;;3.17;2.40;;;16.80;99.90;;;;;;4958511;28;20035;-74
2022/07/30 04:34:33;;;;;;;4.65;2.35;;;16.80;99.90;;;;;;4957557;28;20051;-75
2022/07/30 04:37:02;;;;;;;8.05;2.25;;;16.80;99.90;;;;;;4975204;28;20018;-75
2022/07/30 04:39:27;;;;;;;3.67;2.20;;;16.80;99.90;;;;;;4975662;28;20019;-74
2022/07/30 04:41:53;;;;;;;4.82;2.25;;;16.80;99.90;;;;;;4974929;28;20026;-74
2022/07/30 04:44:19;;;;;;;7.03;2.33;;;16.80;99.90;;;;;;4976738;28;20031;-74
2022/07/30 04:46:45;;;;;;;6.45;2.17;;;16.80;99.90;;;;;;4970498;28;20551;-74
2022/07/30 04:49:14;;;;;;;4.13;2.67;;;16.90;99.90;;;;;;4976408;28;20513;-75
2022/07/30 04:51:41;;;;;;;4.75;2.50;;;16.80;99.90;;;;;;4975881;28;20058;-73
2022/07/30 04:54:09;;;;;;;3.90;2.40;;;16.80;99.90;;;;;;4975977;28;20030;-72
2022/07/30 04:56:36;;;;;;;4.18;2.33;;;16.80;99.90;;;;;;4975014;28;20467;-74
2022/07/30 04:59:04;;;;;;;3.03;1.88;;;16.80;99.90;;;;;;4974945;28;20042;-74
2022/07/30 05:01:36;;;;;;;8.88;2.25;;;16.90;99.90;;;;;;4975800;28;20095;-75
2022/07/30 05:04:04;;;;;;;2.75;2.10;;;16.80;99.90;;;;;;4975561;28;20043;-73
2022/07/30 05:06:30;;;;;;;6.05;2.47;;;16.80;99.90;;;;;;4974668;28;20106;-74
2022/07/30 05:08:56;;;;;;;4.72;2.90;;;16.80;99.90;;;;;;4973642;28;20063;-74
2022/07/30 05:11:22;;;;;;;8.77;2.63;;;16.90;99.90;;;;;;4975145;28;20042;-73
2022/07/30 05:13:48;;;;;;;5.65;3.15;;;16.80;99.90;;;;;;4974216;28;20027;-74
2022/07/30 05:16:14;;;;;;;2.65;2.20;;;16.90;99.90;;;;;;4976930;28;20664;-74
2022/07/30 05:18:39;;;;;;;2.60;2.08;;;16.80;99.90;;;;;;4975482;28;20108;-75
2022/07/30 05:21:06;;;;;;;2.85;2.05;;;17.00;99.90;;;;;;4976825;28;20059;-74
2022/07/30 05:23:32;;;;;;;6.53;2.45;;;16.90;99.90;;;;;;4957121;28;20046;-74
2022/07/30 05:25:58;;;;;;;12.35;3.40;;;17.00;99.90;;;;;;4974675;28;21389;-74
2022/07/30 05:28:28;;;;;;;4.55;2.38;;;17.00;99.90;;;;;;4975181;28;20179;-76
2022/07/30 05:30:54;;;;;;;7.80;2.28;;;17.00;99.90;;;;;;4974816;28;20157;-75
2022/07/30 05:33:21;;;;;;;7.72;2.88;;;16.90;99.90;;;;;;4974444;28;20105;-75
2022/07/30 05:35:48;;;;;;;4.15;2.30;;;17.00;99.90;;;;;;4959372;28;20125;-75
2022/07/30 05:38:14;;;;;;;7.45;2.65;;;17.00;99.90;;;;;;4974662;28;20026;-75
2022/07/30 05:40:40;;;;;;;4.07;2.55;;;17.00;99.90;;;;;;4975854;28;20033;-74
2022/07/30 05:43:06;;;;;;;5.10;2.97;;;17.00;99.90;;;;;;4975302;28;20031;-75
2022/07/30 05:45:32;;;;;;;4.97;2.25;;;17.00;99.90;;;;;;4973869;28;20121;-74
2022/07/30 05:47:57;;;;;;;6.57;2.45;;;17.10;99.90;;;;;;4974532;28;20027;-74
2022/07/30 05:50:23;;;;;;;4.50;2.58;;;17.10;99.90;;;;;;4956045;28;20024;-73
2022/07/30 05:52:52;;;;;;;3.85;2.72;;;17.20;99.90;;;;;;4972266;28;20100;-74
2022/07/30 05:55:18;;;;;;;6.53;3.20;;;17.20;99.90;;;;;;4973228;28;20038;-74
2022/07/30 05:57:43;;;;;;;7.00;3.13;;;17.20;99.90;;;;;;4972324;28;21822;-74
2022/07/30 06:00:11;;;;;;;10.63;3.15;;;17.40;99.90;;;;;;4973633;28;20499;-74
2022/07/30 06:02:38;;;;;;;4.43;2.42;;;17.40;99.90;;;;;;4974094;28;20084;-74
2022/07/30 06:05:04;;;;;;;6.93;3.47;;;17.60;99.90;;;;;;4973520;28;20095;-75
2022/07/30 06:07:30;;;;;;;7.85;2.70;;;17.60;99.90;;;;;;4973803;28;20027;-75
2022/07/30 06:10:01;;;;;;;5.35;3.00;;;17.70;99.90;;;;;;4956837;28;20054;-75
2022/07/30 06:12:28;;;;;;;8.07;3.47;;;17.80;99.90;;;;;;4973445;28;20111;-75
2022/07/30 06:14:54;;;;;;;5.50;2.85;;;17.90;99.90;;;;;;4973836;28;20031;-73
2022/07/30 06:17:20;;;;;;;3.15;2.58;;;17.90;99.90;;;;;;4956340;28;20094;-74
2022/07/30 06:19:46;;;;;;;5.57;3.17;;;18.10;99.90;;;;;;4973781;28;20058;-75
2022/07/30 06:22:12;;;;;;;8.45;3.10;;;18.30;99.90;;;;;;4973009;28;20526;-75
2022/07/30 06:24:37;;;;;;;4.72;3.28;;;18.30;99.90;;;;;;4955640;28;20020;-75
2022/07/30 06:27:03;;;;;;;10.70;2.60;;;18.50;99.90;;;;;;4973824;28;20037;-75
2022/07/30 06:29:30;;;;;;;7.35;3.42;;;18.50;99.90;;;;;;4956348;28;20047;-76
2022/07/30 06:31:55;;;;;;;7.95;3.28;;;18.50;99.90;;;;;;4955181;28;20031;-75
2022/07/30 06:34:21;;;;;;;4.90;2.75;;;18.60;99.90;;;;;;4972608;28;20059;-74
2022/07/30 06:36:47;;;;;;;7.55;3.78;;;18.70;99.90;;;;;;4973777;28;20035;-74
2022/07/30 06:39:13;;;;;;;5.63;2.90;;;18.80;99.90;;;;;;4973713;28;20050;-74
2022/07/30 06:41:38;;;;;;;5.65;3.33;;;18.90;99.90;;;;;;4973622;28;20062;-75
2022/07/30 06:44:04;;;;;;;5.00;2.72;;;18.90;99.90;;;;;;4973105;28;20035;-74
2022/07/30 06:46:30;;;;;;;4.07;2.53;;;19.00;99.90;;;;;;4955590;28;20030;-75
2022/07/30 06:48:56;;;;;;;2.80;2.10;;;19.10;99.90;;;;;;4958257;28;20473;-75
2022/07/30 06:51:21;;;;;;;4.45;2.65;;;19.10;99.90;;;;;;4973066;28;20031;-75
2022/07/30 06:53:47;;;;;;;8.90;3.03;;;19.20;99.90;;;;;;4974664;28;20039;-74
2022/07/30 06:56:13;;;;;;;15.15;3.15;;;19.20;99.90;;;;;;4972357;28;20039;-77
2022/07/30 06:58:39;;;;;;;4.35;2.83;;;19.20;99.90;;;;;;4957075;28;20058;-75
2022/07/30 07:01:05;;;;;;;4.63;2.70;;;19.30;99.90;;;;;;4956113;28;20082;-74
2022/07/30 07:03:31;;;;;;;5.40;2.42;;;19.20;99.90;;;;;;4974384;28;20041;-74
2022/07/30 07:05:57;;;;;;;2.83;2.45;;;19.30;99.90;;;;;;4978688;28;20031;-75
2022/07/30 07:08:23;;;;;;;9.40;2.67;;;19.20;99.90;;;;;;4976816;28;20047;-75
2022/07/30 07:10:49;;;;;;;5.68;3.22;;;19.20;99.90;;;;;;4977188;28;20023;-78
2022/07/30 07:13:15;;;;;;;5.90;2.72;;;19.20;99.90;;;;;;4959290;28;20019;-76
2022/07/30 07:15:41;;;;;;;5.22;3.00;;;19.10;99.90;;;;;;4977093;28;20037;-73
2022/07/30 07:18:06;;;;;;;6.05;2.92;;;19.10;99.90;;;;;;4960903;28;20046;-74
2022/07/30 07:20:34;;;;;;;6.40;3.22;;;19.10;99.90;;;;;;4978152;28;20082;-76
2022/07/30 07:23:00;;;;;;;5.78;2.38;;;19.10;99.90;;;;;;4977058;28;20043;-74
2022/07/30 07:25:26;;;;;;;5.97;2.60;;;19.20;99.90;;;;;;4959381;28;20023;-75
2022/07/30 07:27:52;;;;;;;4.57;2.55;;;19.20;99.90;;;;;;4976918;28;20042;-76
2022/07/30 07:30:17;;;;;;;8.18;3.75;;;19.30;99.90;;;;;;4958992;28;20494;-76
2022/07/30 07:32:43;;;;;;;3.60;3.00;;;19.40;99.90;;;;;;4975906;28;20447;-75
2022/07/30 07:35:09;;;;;;;6.30;3.20;;;19.40;99.90;;;;;;4976216;28;20111;-75
2022/07/30 07:37:34;;;;;;;7.93;3.28;;;19.40;99.90;;;;;;4976335;28;20023;-74
2022/07/30 07:40:00;;;;;;;12.30;3.63;;;19.50;99.90;;;;;;4976598;28;20029;-74
2022/07/30 07:42:25;;;;;;;5.32;2.97;;;19.50;99.90;;;;;;4974679;28;20031;-74
2022/07/30 07:44:51;;;;;;;8.57;4.00;;;19.60;99.90;;;;;;4976772;28;20098;-73
2022/07/30 07:47:17;;;;;;;12.73;3.58;;;19.60;99.90;;;;;;4976686;28;20031;-75
2022/07/30 07:49:42;;;;;;;7.10;3.33;;;19.60;99.90;;;;;;4977457;28;21479;-74
2022/07/30 07:52:08;;;;;;;9.02;3.75;;;19.70;99.90;;;;;;4976101;28;20083;-74
2022/07/30 07:54:33;;;;;;;6.35;3.13;;;19.70;99.90;;;;;;4959931;28;20038;-75
2022/07/30 07:56:59;;;;;;;10.27;2.85;;;19.70;99.90;;;;;;4976087;28;20419;-74
2022/07/30 07:59:24;;;;;;;7.30;2.78;;;19.70;99.90;;;;;;4977270;28;20019;-74
2022/07/30 08:01:50;;;;;;;5.88;3.15;;;19.70;99.90;;;;;;4976415;28;20058;-75
2022/07/30 08:04:16;;;;;;;7.18;2.78;;;19.80;99.90;;;;;;4975466;28;20074;-74
2022/07/30 08:06:42;;;;;;;2.85;2.10;;;19.80;99.90;;;;;;4975932;28;20106;-74
2022/07/30 08:09:08;;;;;;;5.97;2.50;;;19.80;99.90;;;;;;4976118;28;20494;-74
2022/07/30 08:11:34;;;;;;;5.53;3.25;;;19.80;99.90;;;;;;4976080;28;20036;-75
2022/07/30 08:13:59;;;;;;;6.35;2.92;;;19.90;99.90;;;;;;4976247;28;20042;-75
2022/07/30 08:16:25;;;;;;;5.85;3.30;;;19.90;99.90;;;;;;4957682;28;20035;-74
2022/07/30 08:18:50;;;;;;;5.82;3.22;;;19.90;99.90;;;;;;4975374;28;20035;-74
2022/07/30 08:21:16;;;;;;;6.72;3.05;;;19.90;99.90;;;;;;4958871;28;20026;-75
2022/07/30 08:23:42;;;;;;;6.90;3.35;;;19.90;99.90;;;;;;4976011;28;20610;-74
2022/07/30 08:26:07;;;;;;;16.60;3.45;;;19.90;99.90;;;;;;4975477;28;20035;-75
2022/07/30 08:28:35;;;;;;;4.38;2.85;;;19.90;99.90;;;;;;4975797;28;20094;-72
2022/07/30 08:31:03;;;;;;;10.43;4.03;;;20.00;99.90;;;;;;4975560;28;20034;-74
2022/07/30 08:33:29;;;;;;;5.70;3.30;;;19.90;99.90;;;;;;4957497;28;20059;-74
2022/07/30 08:35:54;;;;;;;7.18;2.70;;;20.00;99.90;;;;;;4975904;28;20034;-74
2022/07/30 08:38:20;;;;;;;8.57;3.22;;;20.00;99.90;;;;;;4976042;28;20562;-74
2022/07/30 08:40:46;;;;;;;5.30;2.50;;;20.10;99.90;;;;;;4958254;28;20038;-75
2022/07/30 08:43:11;;;;;;;6.78;3.00;;;20.10;99.90;;;;;;4975328;28;20077;-74
2022/07/30 08:45:38;;;;;;;4.30;2.80;;;20.20;99.90;;;;;;4975142;28;20032;-73
2022/07/30 08:48:09;;;;;;;8.32;3.45;;;20.20;99.90;;;;;;4975149;28;20023;-73
2022/07/30 08:50:35;;;;;;;4.72;3.03;;;20.30;99.90;;;;;;4974080;28;20038;-73
2022/07/30 08:53:03;;;;;;;10.18;3.65;;;20.40;99.90;;;;;;4955894;28;20027;-76
2022/07/30 08:55:31;;;;;;;3.55;2.67;;;20.40;99.90;;;;;;4973473;28;20072;-75
2022/07/30 08:58:13;;;;;;;6.80;2.70;;;20.60;99.90;;;;;;4956273;28;20043;-74
2022/07/30 09:00:39;;;;;;;7.40;3.08;;;20.70;99.90;;;;;;4968365;28;20059;-74
2022/07/30 09:03:05;;;;;;;7.10;3.50;;;20.80;99.90;;;;;;4970552;28;20447;-74
2022/07/30 09:05:32;;;;;;;6.68;3.05;;;20.90;99.90;;;;;;4969985;28;20039;-74
2022/07/30 09:07:59;;;;;;;6.30;3.03;;;21.00;99.90;;;;;;4955321;28;20023;-75
2022/07/30 09:10:25;;;;;;;7.00;3.28;;;21.00;99.90;;;;;;4956913;28;20039;-74
2022/07/30 09:12:51;;;;;;;5.93;2.60;;;21.20;99.90;;;;;;4974489;28;20030;-73
2022/07/30 09:15:19;;;;;;;6.38;2.92;;;21.30;99.90;;;;;;4974185;28;20546;-74
2022/07/30 09:17:59;;;;;;;8.38;3.17;;;21.40;99.90;;;;;;4957029;28;20027;-73
2022/07/30 09:20:31;;;;;;;6.25;3.00;;;21.60;99.90;;;;;;4974603;28;20023;-74
2022/07/30 09:23:00;;;;;;;3.03;2.08;;;21.80;99.90;;;;;;4974350;28;20034;-73
2022/07/30 09:25:41;;;;;;;7.38;3.05;;;22.00;99.90;;;;;;4975513;28;20380;-73
2022/07/30 09:28:09;;;;;;;6.72;3.38;;;22.20;99.90;;;;;;4957427;28;20182;-73
2022/07/30 09:30:44;;;;;;;13.82;3.08;;;22.30;99.90;;;;;;4975203;28;20025;-75
2022/07/30 09:33:10;;;;;;;7.05;2.78;;;22.40;99.90;;;;;;4973737;28;20054;-74
2022/07/30 09:35:35;;;;;;;4.38;2.85;;;22.40;99.90;;;;;;4956657;28;20027;-74
2022/07/30 09:38:03;;;;;;;3.88;1.92;;;22.60;99.90;;;;;;4975118;28;20438;-75
2022/07/30 09:40:29;;;;;;;5.93;2.95;;;22.70;99.90;;;;;;4975179;28;20023;-75
2022/07/30 09:43:03;;;;;;;5.90;2.80;;;22.80;99.90;;;;;;4973945;28;20122;-75
2022/07/30 09:45:29;;;;;;;11.82;2.85;;;23.00;99.90;;;;;;4974670;28;20035;-74
2022/07/30 09:47:55;;;;;;;5.80;2.70;;;23.00;99.90;;;;;;4974032;28;20109;-74
2022/07/30 09:50:23;;;;;;;8.10;2.75;;;23.10;99.90;;;;;;4956976;28;20101;-74
2022/07/30 09:52:49;;;;;;;3.45;1.95;;;23.30;99.90;;;;;;4974005;28;20015;-74
2022/07/30 09:55:33;;;;;;;5.45;2.72;;;23.40;99.90;;;;;;4973506;28;20031;-74
2022/07/30 09:58:05;;;;;;;8.18;2.90;;;23.40;99.90;;;;;;4956905;28;20098;-74
2022/07/30 10:00:33;;;;;;;3.25;2.22;;;23.50;99.90;;;;;;4974653;28;20034;-74
2022/07/30 10:02:59;;;;;;;5.35;2.13;;;23.40;99.90;;;;;;4957723;28;20089;-74
2022/07/30 10:05:25;;;;;;;5.10;2.53;;;23.40;99.90;;;;;;4974271;28;20065;-73
2022/07/30 10:07:54;;;;;;;4.68;2.58;;;23.50;99.90;;;;;;4974326;28;20035;-73
2022/07/30 10:10:25;;;;;;;5.18;2.47;;;23.60;99.90;;;;;;4974168;28;20039;-74
2022/07/30 10:12:55;;;;;;;7.80;2.72;;;23.70;99.90;;;;;;4974883;28;20039;-74
2022/07/30 10:15:24;;;;;;;5.53;3.15;;;23.80;99.90;;;;;;4974460;28;20034;-73
2022/07/30 10:17:50;;;;;;;2.63;1.85;;;23.90;99.90;;;;;;4973138;28;20464;-73
2022/07/30 10:20:16;;;;;;;4.90;2.30;;;24.10;99.90;;;;;;4973711;28;20043;-74
2022/07/30 10:22:43;;;;;;;6.63;2.53;;;24.10;99.90;;;;;;4956544;28;20042;-74
2022/07/30 10:25:09;;;;;;;5.95;2.13;;;24.00;99.90;;;;;;4975279;28;20042;-72
2022/07/30 10:27:38;;;;;;;5.97;2.50;;;23.80;99.90;;;;;;4974191;28;20030;-74
2022/07/30 10:30:04;;;;;;;2.40;1.70;;;23.70;99.90;;;;;;4974327;28;20117;-73
2022/07/30 10:32:31;;;;;;;7.20;2.30;;;23.60;99.90;;;;;;4956366;28;20120;-73
2022/07/30 10:34:58;;;;;;;2.33;1.70;;;23.50;99.90;;;;;;4957262;28;20062;-74
2022/07/30 10:37:26;;;;;;;4.85;1.92;;;23.50;99.90;;;;;;4973795;28;20069;-74
2022/07/30 10:40:16;;;;;;;6.55;2.15;;;23.50;99.90;;;;;;4973444;28;20030;-73
2022/07/30 10:43:02;;;;;;;2.30;1.45;;;23.60;99.90;;;;;;4973571;28;20030;-74
2022/07/30 10:45:56;;;;;;;8.48;2.15;;;23.70;99.90;;;;;;4973717;28;20470;-75
2022/07/30 10:48:22;;;;;;;2.13;1.50;;;24.00;99.90;;;;;;4973940;28;20572;-73
2022/07/30 10:50:58;;;;;;;3.72;1.88;;;24.30;99.90;;;;;;4972855;28;20025;-73
2022/07/30 10:53:37;;;;;;;9.38;2.08;;;24.70;99.90;;;;;;4972887;28;20031;-73
2022/07/30 10:56:23;;;;;;;2.85;1.67;;;24.90;99.90;;;;;;4974226;28;20095;-74
2022/07/30 10:59:05;;;;;;;2.42;1.40;;;24.80;99.90;;;;;;4973618;28;20499;-73
2022/07/30 11:01:46;;;;;;;2.33;1.63;;;24.70;99.90;;;;;;4973413;28;20094;-73
2022/07/30 11:04:22;;;;;;;1.65;0.88;;;24.70;99.90;;;;;;4972812;28;20094;-74
2022/07/30 11:06:49;;;;;;;5.78;1.65;;;24.60;99.90;;;;;;4973338;28;20095;-72
2022/07/30 11:09:33;;;;;;;2.88;1.63;;;24.50;99.90;;;;;;4972801;28;20030;-73
2022/07/30 11:11:58;;;;;;;1.83;0.80;;;24.60;99.90;;;;;;4955525;28;20020;-74
2022/07/30 11:14:44;;;;;;;2.15;1.25;;;24.70;99.90;;;;;;4972953;28;20057;-74
2022/07/30 11:17:10;;;;;;;1.48;1.10;;;25.00;99.90;;;;;;4955921;28;20024;-73
2022/07/30 11:20:03;;;;;;;3.70;1.70;;;25.30;99.90;;;;;;4972616;28;20059;-74
2022/07/30 11:22:40;;;;;;;2.97;1.48;;;25.40;99.90;;;;;;4972757;28;20055;-74
2022/07/30 11:25:07;;;;;;;9.63;1.60;;;25.50;99.90;;;;;;4973110;28;20034;-73
2022/07/30 11:27:47;;;;;;;8.75;1.23;;;25.50;99.90;;;;;;4972959;28;20039;-76
2022/07/30 11:30:15;;;;;;;4.75;1.80;;;25.40;99.90;;;;;;4973651;28;20037;-75
2022/07/30 11:32:45;;;;;;;2.38;1.27;;;25.20;99.90;;;;;;4972762;28;20038;-73
2022/07/30 11:35:13;;;;;;;2.60;1.58;;;25.10;99.90;;;;;;4972894;28;20392;-73
2022/07/30 11:38:07;;;;;;;1.88;1.20;;;25.00;99.90;;;;;;4973196;28;20412;-74
2022/07/30 11:40:38;;;;;;;2.05;1.25;;;25.10;99.90;;;;;;4973809;28;20054;-75
2022/07/30 11:43:35;;;;;;;12.70;1.33;;;25.30;99.90;;;;;;4972846;28;20098;-75
2022/07/30 11:46:21;;;;;;;1.50;0.95;;;25.60;99.90;;;;;;4972966;28;20019;-74
2022/07/30 11:49:14;;;;;;;2.30;1.30;;;25.80;99.90;;;;;;4974358;28;20035;-73
2022/07/30 11:51:41;;;;;;;1.58;1.13;;;25.90;99.90;;;;;;4971922;28;20122;-73
2022/07/30 11:54:09;;;;;;;5.22;1.20;;;25.90;99.90;;;;;;4976184;28;20051;-74
2022/07/30 11:56:35;;;;;;;1.35;1.00;;;26.20;99.90;;;;;;4975949;28;20079;-73
2022/07/30 11:59:06;;;;;;;2.80;1.33;;;26.60;99.90;;;;;;4975583;28;20031;-76
2022/07/30 12:01:34;;;;;;;2.05;1.45;;;26.60;99.90;;;;;;4974442;28;20042;-76
2022/07/30 12:04:07;;;;;;;2.35;1.15;;;26.40;99.90;;;;;;4959332;28;20046;-74
2022/07/30 12:06:41;;;;;;;;;;;26.20;99.90;;;;;;4975485;28;20030;-72
2022/07/30 12:09:07;;;;;;;3.10;1.25;;;25.90;99.90;;;;;;4977528;28;19921;-72
2022/07/30 12:11:35;;;;;;;2.85;1.17;;;25.80;99.90;;;;;;4976107;28;20031;-73
2022/07/30 12:14:02;;;;;;;1.42;0.90;;;25.60;99.90;;;;;;4977848;28;20065;-73
2022/07/30 12:16:30;;;;;;;3.38;1.10;;;25.50;99.90;;;;;;4976210;28;20099;-72
2022/07/30 12:19:01;;;;;;;1.73;0.95;;;25.30;99.90;;;;;;4975963;28;20039;-73
2022/07/30 12:21:26;;;;;;;2.47;1.20;;;25.20;99.90;;;;;;4977613;28;20022;-72
2022/07/30 12:23:57;;;;;;;1.38;0.90;;;25.20;99.90;;;;;;4975471;28;20046;-73
2022/07/30 12:26:29;;;;;;;4.20;1.30;;;25.10;99.90;;;;;;4975172;28;20027;-74
2022/07/30 12:29:06;;;;;;;2.78;1.33;;;25.20;99.90;;;;;;4975146;28;20031;-74
2022/07/30 12:31:32;;;;;;;1.55;0.90;;;25.20;99.90;;;;;;4958029;28;20418;-72
2022/07/30 12:33:59;;;;;;;2.67;1.33;;;25.20;99.90;;;;;;4974943;28;20067;-74
2022/07/30 12:36:33;;;;;;;1.55;0.90;;;25.20;99.90;;;;;;4958171;28;20655;-73
2022/07/30 12:39:05;;;;;;;1.63;1.08;;;25.30;99.90;;;;;;4959309;28;20126;-73
2022/07/30 12:41:45;;;;;;;1.52;0.80;;;25.30;99.90;;;;;;4976783;28;20031;-73
2022/07/30 12:44:41;;;;;;;1.88;0.98;;;25.30;99.90;;;;;;4957532;28;20039;-73
2022/07/30 12:47:28;;;;;;;6.32;1.92;;;25.30;99.90;;;;;;4976480;28;20031;-73
2022/07/30 12:49:59;;;;;;;2.72;1.35;;;25.30;99.90;;;;;;4975500;28;20451;-71
2022/07/30 12:52:30;;;;;;;2.72;1.40;;;25.40;99.90;;;;;;4976428;28;20070;-72
2022/07/30 12:54:57;;;;;;;7.75;1.77;;;25.40;99.90;;;;;;4975710;28;20074;-74